Terminal Aerodrome Forecast
Issued by NWS Wakefield, VA

Home | Current Version | Previous Version | Text Only | Print | Product List | Glossary On
Versions: 1 2 3 4 5 6 7 8 9 10 11 12 13 14 15 16 17 18 19 20 21
533
FTUS41 KAKQ 192339
TAFECG
TAF
KECG 192339Z 2000/2024 11003KT P6SM SKC
     FM201200 12004KT P6SM BKN100
     FM201700 11007KT P6SM OVC045=

USA.gov is the U.S. government's official web portal to all federal, state and local government web resources and services.